OJAIOJAQ

Guest
Details From OJAI - QUEEN ALIA INTL
To OJAQ - AQABA KING HUSSEIN INTL
Flight Number -
Tags generated
Created
Modified
Stats Distance 139 nm / 258 km
Max Altitude 17,500 ft / 5,334 m
Waypoints 3
Social Downloads 0
Likes 0
Share VATSIM

Download

Looking for another format? Having issues loading an existing format? Contact us
Advertisement - Login to hide

Notes

Basic altitude profile: - Ascent Rate: 2500ft/min - Ascent Speed: 250kts - Cruise Altitude: 35000ft - Cruise Speed: 420kts - Descent Rate: 1500ft/min - Descent Speed: 250kts Options: - Use NATs: yes - Use PACOTS: yes - Use low airways: yes - Use high airways: no

Route

OJAI KINAR OJAQ

ID Type Via Altitude Latitude Longitude Leg Dist Tot Dist Heading (true) Name
O OJAI APT - 0 ft / 0 m 31.72331˚ 35.99405˚ - 0 nm - QUEEN ALIA INTL
KINAR FIX - 17,500 ft / 5,334 m 30.94393˚ 35.35136˚ 57 nm 57 nm 215° / 215° -
O OJAQ APT - 0 ft / 0 m 29.61101˚ 35.01785˚ 81 nm 139 nm 192° / 192° AQABA KING HUSSEIN INTL

Altitude Profile

Advertisement - Login to hide

OJAI

Details ICAO OJAI (AMM)
Name QUEEN ALIA INTL
Region Jordan and the West Bank
Timezone Asia/Amman (UTC+3.0)
Stats Elevation 2,395 ft / 730 m (AMSL)
Location 31.723310° 35.994046°
Runways 2
Magnetic Variation 4.695° E

METAR

OJAI 230100Z 00000KT 7000 NSC 22/02 Q1017 NOSIG

Decode

TAF

TAF TAF OJAI 222122Z 2300/2406 VRB02KT 7000 NSC PROB40 TEMPO 2302/2306 4000 HZ BECMG 2306/2308 28012KT 6000 NSC TEMPO 2308/2318 28015G25KT 3000 BLDU

Decode

Departure Runways

ID Width Length Bearing (true) Bearing (mag) Surface Threshold Offset Overrun Length
08L 200 ft / 61 m 11,948 ft / 3,642 m 80.34° 75.64° Asphalt 0 ft / 0 m 490 ft / 149 m
08R 200 ft / 61 m 11,943 ft / 3,640 m 80.35° 75.65° Concrete 0 ft / 0 m 530 ft / 162 m
26L 200 ft / 61 m 11,943 ft / 3,640 m 260.37° 255.67° Concrete 0 ft / 0 m 500 ft / 152 m
26R 200 ft / 61 m 11,948 ft / 3,642 m 260.36° 255.66° Asphalt 0 ft / 0 m 492 ft / 150 m

OJAQ

Details ICAO OJAQ (AQJ)
Name AQABA KING HUSSEIN INTL
Region Jordan and the West Bank
Timezone Asia/Amman (UTC+3.0)
Stats Elevation 175 ft / 53 m (AMSL)
Location 29.611006° 35.017851°
Runways 1
Magnetic Variation 4.469° E

METAR

Not found

TAF

TAF TAF OJAQ 222122Z 2300/2406 36015KT 7000 NSC TEMPO 2310/2316 36012G22KT 5000 BLDU

Decode

Destination Runways

ID Width Length Bearing (true) Bearing (mag) Surface Threshold Offset Overrun Length
01 148 ft / 45 m 9,885 ft / 3,013 m 16.91° 12.44° Asphalt 0 ft / 0 m 0 ft / 0 m
19 148 ft / 45 m 9,885 ft / 3,013 m 196.91° 192.44° Asphalt 0 ft / 0 m 656 ft / 200 m

Approach Navaids

Runway Type Ident Frequency Range Bearing (true) Bearing (mag) Slope Elevation
01 Localiser IAQA 110.10 MHz 18 nm / 33 km 16.76° 12.29° - 111 ft / 34 m (AMSL)
01 Glidescope IAQA 110.10 MHz 10 nm / 19 km 16.91° 12.44° 3.00° 162 ft / 49 m (AMSL)

Popular Alternatives